sensor_id;sensor_type;location;lat;lon;timestamp;temperature;humidity
58568;DHT22;44354;46.192;-1.076;2023-04-25T00:01:05;9.90;99.90
58568;DHT22;44354;46.192;-1.076;2023-04-25T00:03:31;9.90;99.90
58568;DHT22;44354;46.192;-1.076;2023-04-25T00:05:58;9.90;99.90
58568;DHT22;44354;46.192;-1.076;2023-04-25T00:08:28;9.90;99.90
58568;DHT22;44354;46.192;-1.076;2023-04-25T00:10:54;9.90;99.90
58568;DHT22;44354;46.192;-1.076;2023-04-25T00:13:20;10.00;99.90
58568;DHT22;44354;46.192;-1.076;2023-04-25T00:15:47;9.90;99.90
58568;DHT22;44354;46.192;-1.076;2023-04-25T00:18:14;10.00;99.90
58568;DHT22;44354;46.192;-1.076;2023-04-25T00:20:39;10.00;99.90
58568;DHT22;44354;46.192;-1.076;2023-04-25T00:23:06;10.00;99.90
58568;DHT22;44354;46.192;-1.076;2023-04-25T00:25:31;10.00;99.90
58568;DHT22;44354;46.192;-1.076;2023-04-25T00:27:57;10.00;99.90
58568;DHT22;44354;46.192;-1.076;2023-04-25T00:30:23;10.10;99.90
58568;DHT22;44354;46.192;-1.076;2023-04-25T00:32:48;10.10;99.90
58568;DHT22;44354;46.192;-1.076;2023-04-25T00:35:14;10.10;99.90
58568;DHT22;44354;46.192;-1.076;2023-04-25T00:37:40;10.20;99.90
58568;DHT22;44354;46.192;-1.076;2023-04-25T00:40:06;10.20;99.90
58568;DHT22;44354;46.192;-1.076;2023-04-25T00:42:32;10.20;99.90
58568;DHT22;44354;46.192;-1.076;2023-04-25T00:44:59;10.20;99.90
58568;DHT22;44354;46.192;-1.076;2023-04-25T00:47:25;10.30;99.90
58568;DHT22;44354;46.192;-1.076;2023-04-25T00:49:51;10.30;99.90
58568;DHT22;44354;46.192;-1.076;2023-04-25T00:52:18;10.30;99.90
58568;DHT22;44354;46.192;-1.076;2023-04-25T00:54:44;10.20;99.90
58568;DHT22;44354;46.192;-1.076;2023-04-25T00:57:10;10.30;99.90
58568;DHT22;44354;46.192;-1.076;2023-04-25T00:59:37;10.20;99.90
58568;DHT22;44354;46.192;-1.076;2023-04-25T01:02:04;10.20;99.90
58568;DHT22;44354;46.192;-1.076;2023-04-25T01:04:30;10.20;99.90
58568;DHT22;44354;46.192;-1.076;2023-04-25T01:06:56;10.30;99.90
58568;DHT22;44354;46.192;-1.076;2023-04-25T01:09:22;10.30;99.90
58568;DHT22;44354;46.192;-1.076;2023-04-25T01:11:49;10.30;99.90
58568;DHT22;44354;46.192;-1.076;2023-04-25T01:14:15;10.30;99.90
58568;DHT22;44354;46.192;-1.076;2023-04-25T01:16:41;10.30;99.90
58568;DHT22;44354;46.192;-1.076;2023-04-25T01:19:10;10.30;99.90
58568;DHT22;44354;46.192;-1.076;2023-04-25T01:21:39;10.40;99.90
58568;DHT22;44354;46.192;-1.076;2023-04-25T01:24:06;10.30;99.90
58568;DHT22;44354;46.192;-1.076;2023-04-25T01:26:32;10.30;99.90
58568;DHT22;44354;46.192;-1.076;2023-04-25T01:28:58;10.20;99.90
58568;DHT22;44354;46.192;-1.076;2023-04-25T01:31:24;10.10;99.90
58568;DHT22;44354;46.192;-1.076;2023-04-25T01:33:50;10.00;99.90
58568;DHT22;44354;46.192;-1.076;2023-04-25T01:36:17;10.00;99.90
58568;DHT22;44354;46.192;-1.076;2023-04-25T01:38:43;10.00;99.90
58568;DHT22;44354;46.192;-1.076;2023-04-25T01:41:09;10.10;99.90
58568;DHT22;44354;46.192;-1.076;2023-04-25T01:43:35;10.10;99.90
58568;DHT22;44354;46.192;-1.076;2023-04-25T01:46:01;10.10;99.90
58568;DHT22;44354;46.192;-1.076;2023-04-25T01:48:27;10.10;99.90
58568;DHT22;44354;46.192;-1.076;2023-04-25T01:50:52;10.20;99.90
58568;DHT22;44354;46.192;-1.076;2023-04-25T01:53:18;10.20;99.90
58568;DHT22;44354;46.192;-1.076;2023-04-25T01:55:44;10.20;99.90
58568;DHT22;44354;46.192;-1.076;2023-04-25T01:58:09;10.30;99.90
58568;DHT22;44354;46.192;-1.076;2023-04-25T02:00:38;10.40;99.90
58568;DHT22;44354;46.192;-1.076;2023-04-25T02:03:05;10.40;99.90
58568;DHT22;44354;46.192;-1.076;2023-04-25T02:05:37;10.40;99.90
58568;DHT22;44354;46.192;-1.076;2023-04-25T02:08:05;10.40;99.90
58568;DHT22;44354;46.192;-1.076;2023-04-25T02:10:31;10.40;99.90
58568;DHT22;44354;46.192;-1.076;2023-04-25T02:12:57;10.40;99.90
58568;DHT22;44354;46.192;-1.076;2023-04-25T02:15:23;10.40;99.90
58568;DHT22;44354;46.192;-1.076;2023-04-25T02:17:49;10.30;99.90
58568;DHT22;44354;46.192;-1.076;2023-04-25T02:20:15;10.40;99.90
58568;DHT22;44354;46.192;-1.076;2023-04-25T02:22:41;10.50;99.90
58568;DHT22;44354;46.192;-1.076;2023-04-25T02:25:09;10.50;99.90
58568;DHT22;44354;46.192;-1.076;2023-04-25T02:27:35;10.50;99.90
58568;DHT22;44354;46.192;-1.076;2023-04-25T02:30:01;10.50;99.90
58568;DHT22;44354;46.192;-1.076;2023-04-25T02:32:27;10.40;99.90
58568;DHT22;44354;46.192;-1.076;2023-04-25T02:34:52;10.40;99.90
58568;DHT22;44354;46.192;-1.076;2023-04-25T02:37:19;10.50;99.90
58568;DHT22;44354;46.192;-1.076;2023-04-25T02:39:45;10.40;99.90
58568;DHT22;44354;46.192;-1.076;2023-04-25T02:42:10;10.50;99.90
58568;DHT22;44354;46.192;-1.076;2023-04-25T02:44:36;10.40;99.90
58568;DHT22;44354;46.192;-1.076;2023-04-25T02:47:02;10.50;99.90
58568;DHT22;44354;46.192;-1.076;2023-04-25T02:49:27;10.50;99.90
58568;DHT22;44354;46.192;-1.076;2023-04-25T02:51:53;10.40;99.90
58568;DHT22;44354;46.192;-1.076;2023-04-25T02:54:18;10.40;99.90
58568;DHT22;44354;46.192;-1.076;2023-04-25T02:56:44;10.40;99.90
58568;DHT22;44354;46.192;-1.076;2023-04-25T02:59:10;10.40;99.90
58568;DHT22;44354;46.192;-1.076;2023-04-25T03:01:35;10.40;99.90
58568;DHT22;44354;46.192;-1.076;2023-04-25T03:04:01;10.50;99.90
58568;DHT22;44354;46.192;-1.076;2023-04-25T03:06:27;10.40;99.90
58568;DHT22;44354;46.192;-1.076;2023-04-25T03:08:52;10.40;99.90
58568;DHT22;44354;46.192;-1.076;2023-04-25T03:11:19;10.50;99.90
58568;DHT22;44354;46.192;-1.076;2023-04-25T03:13:45;10.50;99.90
58568;DHT22;44354;46.192;-1.076;2023-04-25T03:16:11;10.40;99.90
58568;DHT22;44354;46.192;-1.076;2023-04-25T03:18:37;10.30;99.90
58568;DHT22;44354;46.192;-1.076;2023-04-25T03:21:02;10.30;99.90
58568;DHT22;44354;46.192;-1.076;2023-04-25T03:23:28;10.30;99.90
58568;DHT22;44354;46.192;-1.076;2023-04-25T03:25:54;10.30;99.90
58568;DHT22;44354;46.192;-1.076;2023-04-25T03:28:19;10.30;99.90
58568;DHT22;44354;46.192;-1.076;2023-04-25T03:30:45;10.20;99.90
58568;DHT22;44354;46.192;-1.076;2023-04-25T03:33:11;10.30;99.90
58568;DHT22;44354;46.192;-1.076;2023-04-25T03:35:37;10.20;99.90
58568;DHT22;44354;46.192;-1.076;2023-04-25T03:38:02;10.10;99.90
58568;DHT22;44354;46.192;-1.076;2023-04-25T03:40:28;10.10;99.90
58568;DHT22;44354;46.192;-1.076;2023-04-25T03:42:54;10.10;99.90
58568;DHT22;44354;46.192;-1.076;2023-04-25T03:45:19;10.10;99.90
58568;DHT22;44354;46.192;-1.076;2023-04-25T03:47:45;10.10;99.90
58568;DHT22;44354;46.192;-1.076;2023-04-25T03:50:11;10.10;99.90
58568;DHT22;44354;46.192;-1.076;2023-04-25T03:52:36;10.00;99.90
58568;DHT22;44354;46.192;-1.076;2023-04-25T03:55:02;10.00;99.90
58568;DHT22;44354;46.192;-1.076;2023-04-25T03:57:30;10.00;99.90
58568;DHT22;44354;46.192;-1.076;2023-04-25T03:59:55;10.00;99.90
58568;DHT22;44354;46.192;-1.076;2023-04-25T04:02:21;10.00;99.90
58568;DHT22;44354;46.192;-1.076;2023-04-25T04:04:46;9.90;99.90
58568;DHT22;44354;46.192;-1.076;2023-04-25T04:07:12;9.90;99.90
58568;DHT22;44354;46.192;-1.076;2023-04-25T04:09:38;9.80;99.90
58568;DHT22;44354;46.192;-1.076;2023-04-25T04:12:04;9.80;99.90
58568;DHT22;44354;46.192;-1.076;2023-04-25T04:14:29;9.80;99.90
58568;DHT22;44354;46.192;-1.076;2023-04-25T04:16:55;9.80;99.90
58568;DHT22;44354;46.192;-1.076;2023-04-25T04:19:20;9.80;99.90
58568;DHT22;44354;46.192;-1.076;2023-04-25T04:21:46;9.80;99.90
58568;DHT22;44354;46.192;-1.076;2023-04-25T04:24:12;9.70;99.90
58568;DHT22;44354;46.192;-1.076;2023-04-25T04:26:37;9.70;99.90
58568;DHT22;44354;46.192;-1.076;2023-04-25T04:29:04;9.70;99.90
58568;DHT22;44354;46.192;-1.076;2023-04-25T04:31:29;9.70;99.90
58568;DHT22;44354;46.192;-1.076;2023-04-25T04:33:55;9.70;99.90
58568;DHT22;44354;46.192;-1.076;2023-04-25T04:36:21;9.70;99.90
58568;DHT22;44354;46.192;-1.076;2023-04-25T04:38:48;9.70;99.90
58568;DHT22;44354;46.192;-1.076;2023-04-25T04:41:14;9.70;99.90
58568;DHT22;44354;46.192;-1.076;2023-04-25T04:43:40;9.70;99.90
58568;DHT22;44354;46.192;-1.076;2023-04-25T04:46:05;9.60;99.90
58568;DHT22;44354;46.192;-1.076;2023-04-25T04:48:32;9.60;99.90
58568;DHT22;44354;46.192;-1.076;2023-04-25T04:50:59;9.60;99.90
58568;DHT22;44354;46.192;-1.076;2023-04-25T04:53:25;9.60;99.90
58568;DHT22;44354;46.192;-1.076;2023-04-25T04:55:51;9.60;99.90
58568;DHT22;44354;46.192;-1.076;2023-04-25T04:58:17;9.60;99.90
58568;DHT22;44354;46.192;-1.076;2023-04-25T05:00:42;9.60;99.90
58568;DHT22;44354;46.192;-1.076;2023-04-25T05:03:08;9.60;99.90
58568;DHT22;44354;46.192;-1.076;2023-04-25T05:05:34;9.60;99.90
58568;DHT22;44354;46.192;-1.076;2023-04-25T05:07:59;9.60;99.90
58568;DHT22;44354;46.192;-1.076;2023-04-25T05:10:25;9.60;99.90
58568;DHT22;44354;46.192;-1.076;2023-04-25T05:12:51;9.70;99.90
58568;DHT22;44354;46.192;-1.076;2023-04-25T05:15:17;9.60;99.90
58568;DHT22;44354;46.192;-1.076;2023-04-25T05:17:42;9.60;99.90
58568;DHT22;44354;46.192;-1.076;2023-04-25T05:20:09;9.60;99.90
58568;DHT22;44354;46.192;-1.076;2023-04-25T05:22:35;9.70;99.90
58568;DHT22;44354;46.192;-1.076;2023-04-25T05:25:01;9.60;99.90
58568;DHT22;44354;46.192;-1.076;2023-04-25T05:27:26;9.60;99.90
58568;DHT22;44354;46.192;-1.076;2023-04-25T05:29:52;9.50;99.90
58568;DHT22;44354;46.192;-1.076;2023-04-25T05:32:18;9.50;99.90
58568;DHT22;44354;46.192;-1.076;2023-04-25T05:34:43;9.60;99.90
58568;DHT22;44354;46.192;-1.076;2023-04-25T05:37:09;9.60;99.90
58568;DHT22;44354;46.192;-1.076;2023-04-25T05:39:35;9.70;99.90
58568;DHT22;44354;46.192;-1.076;2023-04-25T05:42:01;9.50;99.90
58568;DHT22;44354;46.192;-1.076;2023-04-25T05:44:27;9.40;99.90
58568;DHT22;44354;46.192;-1.076;2023-04-25T05:46:53;9.50;99.90
58568;DHT22;44354;46.192;-1.076;2023-04-25T05:49:19;9.50;99.90
58568;DHT22;44354;46.192;-1.076;2023-04-25T05:51:44;9.60;99.90
58568;DHT22;44354;46.192;-1.076;2023-04-25T05:54:10;9.60;99.90
58568;DHT22;44354;46.192;-1.076;2023-04-25T05:56:36;9.60;99.90
58568;DHT22;44354;46.192;-1.076;2023-04-25T05:59:01;9.70;99.90
58568;DHT22;44354;46.192;-1.076;2023-04-25T06:01:27;9.70;99.90
58568;DHT22;44354;46.192;-1.076;2023-04-25T06:03:53;9.70;99.90
58568;DHT22;44354;46.192;-1.076;2023-04-25T06:06:18;9.80;99.90
58568;DHT22;44354;46.192;-1.076;2023-04-25T06:08:44;9.80;99.90
58568;DHT22;44354;46.192;-1.076;2023-04-25T06:11:10;9.80;99.90
58568;DHT22;44354;46.192;-1.076;2023-04-25T06:13:36;9.90;99.90
58568;DHT22;44354;46.192;-1.076;2023-04-25T06:16:02;10.00;99.90
58568;DHT22;44354;46.192;-1.076;2023-04-25T06:18:27;10.00;99.90
58568;DHT22;44354;46.192;-1.076;2023-04-25T06:20:53;10.10;99.90
58568;DHT22;44354;46.192;-1.076;2023-04-25T06:23:19;10.20;99.90
58568;DHT22;44354;46.192;-1.076;2023-04-25T06:25:44;10.20;99.90
58568;DHT22;44354;46.192;-1.076;2023-04-25T06:28:10;10.30;99.90
58568;DHT22;44354;46.192;-1.076;2023-04-25T06:30:36;10.30;99.90
58568;DHT22;44354;46.192;-1.076;2023-04-25T06:33:01;10.30;99.90
58568;DHT22;44354;46.192;-1.076;2023-04-25T06:35:27;10.20;99.90
58568;DHT22;44354;46.192;-1.076;2023-04-25T06:37:53;10.20;99.90
58568;DHT22;44354;46.192;-1.076;2023-04-25T06:40:18;10.20;99.90
58568;DHT22;44354;46.192;-1.076;2023-04-25T06:42:44;10.20;99.90
58568;DHT22;44354;46.192;-1.076;2023-04-25T06:45:11;10.20;99.90
58568;DHT22;44354;46.192;-1.076;2023-04-25T06:47:36;10.10;99.90
58568;DHT22;44354;46.192;-1.076;2023-04-25T06:50:02;10.10;99.90
58568;DHT22;44354;46.192;-1.076;2023-04-25T06:52:28;10.10;99.90
58568;DHT22;44354;46.192;-1.076;2023-04-25T06:54:53;10.10;99.90
58568;DHT22;44354;46.192;-1.076;2023-04-25T06:57:19;10.20;99.90
58568;DHT22;44354;46.192;-1.076;2023-04-25T06:59:45;10.30;99.90
58568;DHT22;44354;46.192;-1.076;2023-04-25T07:02:11;10.40;99.90
58568;DHT22;44354;46.192;-1.076;2023-04-25T07:04:36;10.60;99.90
58568;DHT22;44354;46.192;-1.076;2023-04-25T07:07:02;10.70;99.90
58568;DHT22;44354;46.192;-1.076;2023-04-25T07:09:28;10.80;99.90
58568;DHT22;44354;46.192;-1.076;2023-04-25T07:11:55;10.90;99.90
58568;DHT22;44354;46.192;-1.076;2023-04-25T07:14:22;10.80;99.90
58568;DHT22;44354;46.192;-1.076;2023-04-25T07:16:47;10.90;99.90
58568;DHT22;44354;46.192;-1.076;2023-04-25T07:19:13;10.90;99.90
58568;DHT22;44354;46.192;-1.076;2023-04-25T07:21:39;10.80;99.90
58568;DHT22;44354;46.192;-1.076;2023-04-25T07:24:05;10.80;99.90
58568;DHT22;44354;46.192;-1.076;2023-04-25T07:26:31;10.90;99.90
58568;DHT22;44354;46.192;-1.076;2023-04-25T07:28:57;10.90;99.90
58568;DHT22;44354;46.192;-1.076;2023-04-25T07:31:23;11.00;99.90
58568;DHT22;44354;46.192;-1.076;2023-04-25T07:33:48;10.90;99.90
58568;DHT22;44354;46.192;-1.076;2023-04-25T07:36:15;11.00;99.90
58568;DHT22;44354;46.192;-1.076;2023-04-25T07:38:41;11.20;99.90
58568;DHT22;44354;46.192;-1.076;2023-04-25T07:41:07;11.20;99.90
58568;DHT22;44354;46.192;-1.076;2023-04-25T07:43:32;11.20;99.90
58568;DHT22;44354;46.192;-1.076;2023-04-25T07:45:58;11.30;99.90
58568;DHT22;44354;46.192;-1.076;2023-04-25T07:48:24;11.30;99.90
58568;DHT22;44354;46.192;-1.076;2023-04-25T07:50:49;11.30;99.90
58568;DHT22;44354;46.192;-1.076;2023-04-25T07:53:15;11.60;99.90
58568;DHT22;44354;46.192;-1.076;2023-04-25T07:55:43;11.70;99.90
58568;DHT22;44354;46.192;-1.076;2023-04-25T07:58:10;11.80;99.90
58568;DHT22;44354;46.192;-1.076;2023-04-25T08:00:36;11.70;99.90
58568;DHT22;44354;46.192;-1.076;2023-04-25T08:03:03;11.90;99.90
58568;DHT22;44354;46.192;-1.076;2023-04-25T08:05:29;11.90;99.90
58568;DHT22;44354;46.192;-1.076;2023-04-25T08:07:55;11.90;99.90
58568;DHT22;44354;46.192;-1.076;2023-04-25T08:10:22;11.90;99.90
58568;DHT22;44354;46.192;-1.076;2023-04-25T08:12:48;11.90;99.90
58568;DHT22;44354;46.192;-1.076;2023-04-25T08:15:14;12.00;99.90
58568;DHT22;44354;46.192;-1.076;2023-04-25T08:17:40;12.20;99.90
58568;DHT22;44354;46.192;-1.076;2023-04-25T08:20:06;12.30;99.90
58568;DHT22;44354;46.192;-1.076;2023-04-25T08:22:32;12.40;99.90
58568;DHT22;44354;46.192;-1.076;2023-04-25T08:24:58;12.60;99.90
58568;DHT22;44354;46.192;-1.076;2023-04-25T08:27:23;12.90;99.90
58568;DHT22;44354;46.192;-1.076;2023-04-25T08:29:49;13.00;99.90
58568;DHT22;44354;46.192;-1.076;2023-04-25T08:32:16;13.20;99.90
58568;DHT22;44354;46.192;-1.076;2023-04-25T08:34:42;13.30;99.90
58568;DHT22;44354;46.192;-1.076;2023-04-25T08:37:09;13.30;99.90
58568;DHT22;44354;46.192;-1.076;2023-04-25T08:39:36;13.30;99.90
58568;DHT22;44354;46.192;-1.076;2023-04-25T08:42:02;13.30;99.90
58568;DHT22;44354;46.192;-1.076;2023-04-25T08:44:33;13.40;99.90
58568;DHT22;44354;46.192;-1.076;2023-04-25T08:46:59;13.50;99.90
58568;DHT22;44354;46.192;-1.076;2023-04-25T08:49:25;13.50;99.90
58568;DHT22;44354;46.192;-1.076;2023-04-25T08:51:52;13.50;99.90
58568;DHT22;44354;46.192;-1.076;2023-04-25T08:54:21;13.40;99.90
58568;DHT22;44354;46.192;-1.076;2023-04-25T08:56:50;13.40;99.90
58568;DHT22;44354;46.192;-1.076;2023-04-25T08:59:17;13.50;99.90
58568;DHT22;44354;46.192;-1.076;2023-04-25T09:01:42;13.50;99.90
58568;DHT22;44354;46.192;-1.076;2023-04-25T09:04:08;13.70;99.90
58568;DHT22;44354;46.192;-1.076;2023-04-25T09:06:34;13.90;99.90
58568;DHT22;44354;46.192;-1.076;2023-04-25T09:09:05;14.10;99.90
58568;DHT22;44354;46.192;-1.076;2023-04-25T09:11:32;14.10;99.90
58568;DHT22;44354;46.192;-1.076;2023-04-25T09:14:18;14.30;99.90
58568;DHT22;44354;46.192;-1.076;2023-04-25T09:16:58;14.30;99.90
58568;DHT22;44354;46.192;-1.076;2023-04-25T09:19:35;14.40;99.90
58568;DHT22;44354;46.192;-1.076;2023-04-25T09:22:04;14.40;99.90
58568;DHT22;44354;46.192;-1.076;2023-04-25T09:24:40;14.40;99.90
58568;DHT22;44354;46.192;-1.076;2023-04-25T09:27:18;14.10;99.90
58568;DHT22;44354;46.192;-1.076;2023-04-25T09:29:44;14.00;99.90
58568;DHT22;44354;46.192;-1.076;2023-04-25T09:32:23;14.20;99.90
58568;DHT22;44354;46.192;-1.076;2023-04-25T09:34:49;14.30;99.90
58568;DHT22;44354;46.192;-1.076;2023-04-25T09:37:26;14.40;99.90
58568;DHT22;44354;46.192;-1.076;2023-04-25T09:39:54;14.50;99.90
58568;DHT22;44354;46.192;-1.076;2023-04-25T09:42:27;14.40;99.90
58568;DHT22;44354;46.192;-1.076;2023-04-25T09:44:55;14.50;99.90
58568;DHT22;44354;46.192;-1.076;2023-04-25T09:47:23;14.50;99.90
58568;DHT22;44354;46.192;-1.076;2023-04-25T09:49:49;14.60;99.90
58568;DHT22;44354;46.192;-1.076;2023-04-25T09:52:20;14.60;99.90
58568;DHT22;44354;46.192;-1.076;2023-04-25T09:54:47;14.40;99.90
58568;DHT22;44354;46.192;-1.076;2023-04-25T09:57:16;14.30;99.90
58568;DHT22;44354;46.192;-1.076;2023-04-25T09:59:49;14.30;99.90
58568;DHT22;44354;46.192;-1.076;2023-04-25T10:02:18;14.30;99.90
58568;DHT22;44354;46.192;-1.076;2023-04-25T10:04:50;14.20;99.90
58568;DHT22;44354;46.192;-1.076;2023-04-25T10:07:18;14.20;99.90
58568;DHT22;44354;46.192;-1.076;2023-04-25T10:09:48;14.20;99.90
58568;DHT22;44354;46.192;-1.076;2023-04-25T10:12:16;14.40;99.90
58568;DHT22;44354;46.192;-1.076;2023-04-25T10:14:42;14.40;99.90
58568;DHT22;44354;46.192;-1.076;2023-04-25T10:17:10;14.50;99.90
58568;DHT22;44354;46.192;-1.076;2023-04-25T10:19:36;14.60;99.90
58568;DHT22;44354;46.192;-1.076;2023-04-25T10:22:07;14.70;99.90
58568;DHT22;44354;46.192;-1.076;2023-04-25T10:24:35;14.90;99.90
58568;DHT22;44354;46.192;-1.076;2023-04-25T10:27:02;15.10;99.90
58568;DHT22;44354;46.192;-1.076;2023-04-25T10:29:28;15.10;99.90
58568;DHT22;44354;46.192;-1.076;2023-04-25T10:31:54;15.00;99.90
58568;DHT22;44354;46.192;-1.076;2023-04-25T10:34:24;15.10;99.90
58568;DHT22;44354;46.192;-1.076;2023-04-25T10:36:52;14.90;99.90
58568;DHT22;44354;46.192;-1.076;2023-04-25T10:39:23;15.10;99.90
58568;DHT22;44354;46.192;-1.076;2023-04-25T10:42:09;15.30;99.90
58568;DHT22;44354;46.192;-1.076;2023-04-25T10:44:37;15.40;99.90
58568;DHT22;44354;46.192;-1.076;2023-04-25T10:47:03;15.30;99.90
58568;DHT22;44354;46.192;-1.076;2023-04-25T10:49:36;15.50;99.90
58568;DHT22;44354;46.192;-1.076;2023-04-25T10:52:25;15.50;99.90
58568;DHT22;44354;46.192;-1.076;2023-04-25T10:54:56;15.50;99.90
58568;DHT22;44354;46.192;-1.076;2023-04-25T11:02:31;15.10;99.90
58568;DHT22;44354;46.192;-1.076;2023-04-25T11:04:57;14.80;99.90
58568;DHT22;44354;46.192;-1.076;2023-04-25T11:07:44;14.50;99.90
58568;DHT22;44354;46.192;-1.076;2023-04-25T11:10:14;14.50;99.90
58568;DHT22;44354;46.192;-1.076;2023-04-25T11:12:40;14.40;99.90
58568;DHT22;44354;46.192;-1.076;2023-04-25T11:15:07;14.70;99.90
58568;DHT22;44354;46.192;-1.076;2023-04-25T11:17:33;14.80;99.90
58568;DHT22;44354;46.192;-1.076;2023-04-25T11:19:59;14.90;99.90
58568;DHT22;44354;46.192;-1.076;2023-04-25T11:22:27;15.00;99.90
58568;DHT22;44354;46.192;-1.076;2023-04-25T11:24:53;14.90;99.90
58568;DHT22;44354;46.192;-1.076;2023-04-25T11:27:18;14.90;99.90
58568;DHT22;44354;46.192;-1.076;2023-04-25T11:29:44;15.10;99.90
58568;DHT22;44354;46.192;-1.076;2023-04-25T11:32:15;15.20;99.90
58568;DHT22;44354;46.192;-1.076;2023-04-25T11:34:43;15.40;99.90
58568;DHT22;44354;46.192;-1.076;2023-04-25T11:37:10;15.70;99.90
58568;DHT22;44354;46.192;-1.076;2023-04-25T11:39:37;15.80;99.90
58568;DHT22;44354;46.192;-1.076;2023-04-25T11:42:04;15.50;99.90
58568;DHT22;44354;46.192;-1.076;2023-04-25T11:44:31;15.80;99.90
58568;DHT22;44354;46.192;-1.076;2023-04-25T11:46:56;15.80;99.90
58568;DHT22;44354;46.192;-1.076;2023-04-25T11:49:22;15.80;99.90
58568;DHT22;44354;46.192;-1.076;2023-04-25T11:51:50;15.70;99.90
58568;DHT22;44354;46.192;-1.076;2023-04-25T11:54:16;15.20;99.90
58568;DHT22;44354;46.192;-1.076;2023-04-25T11:56:45;15.40;99.90
58568;DHT22;44354;46.192;-1.076;2023-04-25T11:59:11;15.50;99.90
58568;DHT22;44354;46.192;-1.076;2023-04-25T12:01:46;15.50;99.90
58568;DHT22;44354;46.192;-1.076;2023-04-25T12:04:20;15.20;99.90
58568;DHT22;44354;46.192;-1.076;2023-04-25T12:06:47;15.30;99.90
58568;DHT22;44354;46.192;-1.076;2023-04-25T12:09:15;15.20;99.90
58568;DHT22;44354;46.192;-1.076;2023-04-25T12:11:44;15.30;99.90
58568;DHT22;44354;46.192;-1.076;2023-04-25T12:17:06;15.20;99.90
58568;DHT22;44354;46.192;-1.076;2023-04-25T12:19:37;15.30;99.90
58568;DHT22;44354;46.192;-1.076;2023-04-25T12:22:19;15.00;99.90
58568;DHT22;44354;46.192;-1.076;2023-04-25T12:24:45;15.00;99.90
58568;DHT22;44354;46.192;-1.076;2023-04-25T12:27:14;15.10;99.90
58568;DHT22;44354;46.192;-1.076;2023-04-25T12:30:04;15.20;99.90
58568;DHT22;44354;46.192;-1.076;2023-04-25T12:32:30;15.20;99.90
58568;DHT22;44354;46.192;-1.076;2023-04-25T12:34:56;15.20;99.90
58568;DHT22;44354;46.192;-1.076;2023-04-25T12:37:21;15.10;99.90
58568;DHT22;44354;46.192;-1.076;2023-04-25T12:39:47;15.20;99.90
58568;DHT22;44354;46.192;-1.076;2023-04-25T12:42:13;15.00;99.90
58568;DHT22;44354;46.192;-1.076;2023-04-25T12:44:38;15.10;99.90
58568;DHT22;44354;46.192;-1.076;2023-04-25T12:47:04;15.10;99.90
58568;DHT22;44354;46.192;-1.076;2023-04-25T12:49:31;15.20;99.90
58568;DHT22;44354;46.192;-1.076;2023-04-25T12:51:57;15.20;99.90
58568;DHT22;44354;46.192;-1.076;2023-04-25T12:54:23;15.20;99.90
58568;DHT22;44354;46.192;-1.076;2023-04-25T12:56:48;15.00;99.90
58568;DHT22;44354;46.192;-1.076;2023-04-25T12:59:15;14.90;99.90
58568;DHT22;44354;46.192;-1.076;2023-04-25T13:01:41;14.80;99.90
58568;DHT22;44354;46.192;-1.076;2023-04-25T13:04:06;14.70;99.90
58568;DHT22;44354;46.192;-1.076;2023-04-25T13:06:32;14.60;99.90
58568;DHT22;44354;46.192;-1.076;2023-04-25T13:08:58;14.60;99.90
58568;DHT22;44354;46.192;-1.076;2023-04-25T13:11:23;14.40;99.90
58568;DHT22;44354;46.192;-1.076;2023-04-25T13:13:49;14.50;99.90
58568;DHT22;44354;46.192;-1.076;2023-04-25T13:16:14;14.50;99.90
58568;DHT22;44354;46.192;-1.076;2023-04-25T13:18:41;14.40;99.90
58568;DHT22;44354;46.192;-1.076;2023-04-25T13:21:07;14.60;99.90
58568;DHT22;44354;46.192;-1.076;2023-04-25T13:23:33;14.60;99.90
58568;DHT22;44354;46.192;-1.076;2023-04-25T13:25:59;14.60;99.90
58568;DHT22;44354;46.192;-1.076;2023-04-25T13:28:27;14.50;99.90
58568;DHT22;44354;46.192;-1.076;2023-04-25T13:30:52;14.60;99.90
58568;DHT22;44354;46.192;-1.076;2023-04-25T13:33:19;14.50;99.90
58568;DHT22;44354;46.192;-1.076;2023-04-25T13:35:46;14.50;99.90
58568;DHT22;44354;46.192;-1.076;2023-04-25T13:38:15;14.70;99.90
58568;DHT22;44354;46.192;-1.076;2023-04-25T13:40:40;14.60;99.90
58568;DHT22;44354;46.192;-1.076;2023-04-25T13:43:06;14.80;99.90
58568;DHT22;44354;46.192;-1.076;2023-04-25T13:45:32;14.70;99.90
58568;DHT22;44354;46.192;-1.076;2023-04-25T13:47:58;14.50;99.90
58568;DHT22;44354;46.192;-1.076;2023-04-25T13:50:23;14.60;99.90
58568;DHT22;44354;46.192;-1.076;2023-04-25T13:52:49;14.60;99.90
58568;DHT22;44354;46.192;-1.076;2023-04-25T13:55:15;14.70;99.90
58568;DHT22;44354;46.192;-1.076;2023-04-25T13:57:41;14.60;99.90
58568;DHT22;44354;46.192;-1.076;2023-04-25T14:00:07;14.50;99.90
58568;DHT22;44354;46.192;-1.076;2023-04-25T14:02:37;14.50;99.90
58568;DHT22;44354;46.192;-1.076;2023-04-25T14:05:05;14.60;99.90
58568;DHT22;44354;46.192;-1.076;2023-04-25T14:07:34;14.70;99.90
58568;DHT22;44354;46.192;-1.076;2023-04-25T14:10:00;14.60;99.90
58568;DHT22;44354;46.192;-1.076;2023-04-25T14:12:26;14.70;99.90
58568;DHT22;44354;46.192;-1.076;2023-04-25T14:14:52;14.60;99.90
58568;DHT22;44354;46.192;-1.076;2023-04-25T14:17:19;14.70;99.90
58568;DHT22;44354;46.192;-1.076;2023-04-25T14:19:44;14.70;99.90
58568;DHT22;44354;46.192;-1.076;2023-04-25T14:22:14;14.80;99.90
58568;DHT22;44354;46.192;-1.076;2023-04-25T14:24:40;14.90;99.90
58568;DHT22;44354;46.192;-1.076;2023-04-25T14:27:06;14.90;99.90
58568;DHT22;44354;46.192;-1.076;2023-04-25T14:29:32;14.70;99.90
58568;DHT22;44354;46.192;-1.076;2023-04-25T14:31:57;14.90;99.90
58568;DHT22;44354;46.192;-1.076;2023-04-25T14:34:24;14.60;99.90
58568;DHT22;44354;46.192;-1.076;2023-04-25T14:36:51;14.50;99.90
58568;DHT22;44354;46.192;-1.076;2023-04-25T14:39:17;14.60;99.90
58568;DHT22;44354;46.192;-1.076;2023-04-25T14:41:43;14.60;99.90
58568;DHT22;44354;46.192;-1.076;2023-04-25T14:44:08;14.70;99.90
58568;DHT22;44354;46.192;-1.076;2023-04-25T14:46:34;14.70;99.90
58568;DHT22;44354;46.192;-1.076;2023-04-25T14:49:00;14.70;99.90
58568;DHT22;44354;46.192;-1.076;2023-04-25T14:51:26;15.00;99.90
58568;DHT22;44354;46.192;-1.076;2023-04-25T14:53:52;15.00;99.90
58568;DHT22;44354;46.192;-1.076;2023-04-25T14:56:18;15.00;99.90
58568;DHT22;44354;46.192;-1.076;2023-04-25T14:58:44;15.10;99.90
58568;DHT22;44354;46.192;-1.076;2023-04-25T15:01:11;15.20;99.90
58568;DHT22;44354;46.192;-1.076;2023-04-25T15:03:38;15.40;99.90
58568;DHT22;44354;46.192;-1.076;2023-04-25T15:06:05;15.10;99.90
58568;DHT22;44354;46.192;-1.076;2023-04-25T15:08:31;15.10;99.90
58568;DHT22;44354;46.192;-1.076;2023-04-25T15:10:58;15.30;99.90
58568;DHT22;44354;46.192;-1.076;2023-04-25T15:13:24;15.40;99.90
58568;DHT22;44354;46.192;-1.076;2023-04-25T15:15:50;15.20;99.90
58568;DHT22;44354;46.192;-1.076;2023-04-25T15:18:20;14.90;99.90
58568;DHT22;44354;46.192;-1.076;2023-04-25T15:20:52;14.60;99.90
58568;DHT22;44354;46.192;-1.076;2023-04-25T15:23:18;14.60;99.90